Time;durP1;ratioP1;P1;durP2;ratioP2;P2;SDS_P1;SDS_P2;PMS_P1;PMS_P2;Temp;Humidity;BMP_temperature;BMP_pressure;BME280_temperature;BME280_humidity;BME280_pressure;Samples;Min_cycle;Max_cycle;Signal;HPM_P1;HPM_P2
2023/07/07 00:00:24;;;;;;;1.30;1.30;;;20.20;79.20;;;20.57;53.12;100849.78;5015016;28;20640;-66
2023/07/07 00:02:51;;;;;;;1.77;1.67;;;20.20;79.70;;;20.54;53.35;100850.97;5020469;28;21012;-66
2023/07/07 00:05:19;;;;;;;1.83;1.33;;;20.10;80.30;;;20.47;53.31;100854.44;5016443;28;20614;-66
2023/07/07 00:07:48;;;;;;;2.70;1.50;;;20.10;80.50;;;20.41;53.82;100861.25;5010760;28;20656;-66
2023/07/07 00:10:15;;;;;;;2.47;1.33;;;20.00;81.50;;;20.37;53.75;100853.78;5025719;28;21250;-65
2023/07/07 00:12:43;;;;;;;1.90;1.70;;;20.00;81.40;;;20.29;53.46;100853.81;5022046;28;20861;-66
2023/07/07 00:15:11;;;;;;;1.80;1.50;;;19.90;81.20;;;20.24;53.64;100856.13;5018148;28;20736;-66
2023/07/07 00:17:41;;;;;;;1.30;1.30;;;19.90;81.50;;;20.21;54.09;100857.28;5010885;28;20700;-68
2023/07/07 00:20:11;;;;;;;1.97;1.77;;;19.80;82.00;;;20.20;nan;100860.94;5015173;28;20726;-66
2023/07/07 00:22:38;;;;;;;7.07;1.87;;;19.80;82.50;;;20.18;nan;100872.66;5011798;28;20606;-66
2023/07/07 00:25:07;;;;;;;1.90;1.67;;;19.80;83.00;;;20.16;nan;100875.47;5020648;28;20629;-66
2023/07/07 00:27:34;;;;;;;1.50;1.40;;;19.80;82.10;;;20.13;nan;100871.34;5022727;28;20677;-67
2023/07/07 00:30:02;;;;;;;1.63;1.53;;;19.70;82.00;;;20.11;nan;100872.50;5011994;28;20641;-67
2023/07/07 00:32:31;;;;;;;1.63;1.53;;;19.70;82.20;;;20.01;nan;100871.84;5028410;28;20632;-66
2023/07/07 00:34:58;;;;;;;1.67;1.33;;;19.60;81.30;;;19.96;nan;100872.31;5018627;28;20747;-67
2023/07/07 00:37:25;;;;;;;1.70;1.60;;;19.60;81.20;;;19.93;nan;100872.63;5013563;28;20661;-66
2023/07/07 00:39:52;;;;;;;1.80;1.60;;;19.60;81.20;;;19.90;nan;100870.34;5010333;28;20695;-66
2023/07/07 00:42:19;;;;;;;1.57;1.47;;;19.50;81.30;;;19.88;nan;100868.84;5011085;28;21266;-66
2023/07/07 00:45:05;;;;;;;1.17;1.17;;;19.50;81.10;;;19.82;nan;100869.50;5008571;28;20672;-67
2023/07/07 00:47:59;;;;;;;1.57;1.47;;;19.40;80.70;;;19.76;nan;100865.69;5023904;28;20718;-67
2023/07/07 00:50:35;;;;;;;1.73;1.40;;;19.40;80.70;;;19.75;nan;100873.78;5021801;28;20695;-67
2023/07/07 00:53:02;;;;;;;1.00;1.00;;;19.40;80.60;;;19.72;nan;100869.66;5016719;28;21555;-66
2023/07/07 00:55:39;;;;;;;1.37;1.20;;;19.30;80.50;;;19.69;nan;100871.81;5032169;28;20656;-67
2023/07/07 00:58:10;;;;;;;1.87;1.27;;;19.30;80.40;;;19.61;nan;100875.28;5022944;28;20659;-66
2023/07/07 01:00:42;;;;;;;1.27;1.20;;;19.20;80.80;;;19.55;nan;100880.38;5026929;28;20675;-65
2023/07/07 01:03:22;;;;;;;1.40;1.30;;;19.10;81.30;;;19.50;nan;100878.22;5014790;28;20621;-66
2023/07/07 01:05:53;;;;;;;1.27;1.20;;;19.10;81.90;;;19.47;nan;100883.81;5010251;28;20648;-65
2023/07/07 01:08:20;;;;;;;1.10;1.10;;;19.10;81.80;;;19.44;nan;100881.50;5012697;28;20669;-66
2023/07/07 01:10:47;;;;;;;1.47;1.10;;;19.00;81.30;;;19.43;nan;100886.94;5019780;28;20621;-66
2023/07/07 01:13:15;;;;;;;1.20;1.13;;;19.00;81.80;;;19.41;nan;100884.47;5013331;28;20645;-66
2023/07/07 01:16:01;;;;;;;1.60;1.50;;;19.00;82.10;;;19.37;nan;100883.13;5019499;28;20678;-66
2023/07/07 01:19:15;;;;;;;0.90;0.90;;;19.00;81.90;;;19.36;nan;100883.31;5028640;28;20683;-67
2023/07/07 01:22:27;;;;;;;1.43;1.33;;;19.00;82.10;;;19.38;nan;100886.63;5015919;28;20646;-66
2023/07/07 01:25:29;;;;;;;2.40;1.37;;;19.00;82.30;;;19.37;nan;100882.31;5029984;28;20654;-67
2023/07/07 01:28:24;;;;;;;2.10;1.90;;;19.00;82.40;;;19.38;nan;100886.63;5017851;28;20668;-66
2023/07/07 01:30:55;;;;;;;1.60;1.50;;;19.00;82.70;;;19.36;nan;100884.13;5017744;28;21015;-66
2023/07/07 01:33:27;;;;;;;1.30;1.20;;;19.00;82.80;;;19.35;nan;100887.75;5028379;28;21072;-66
2023/07/07 01:35:54;;;;;;;1.00;1.00;;;19.00;83.20;;;19.33;nan;100887.06;5010003;28;21086;-65
2023/07/07 01:38:45;;;;;;;1.47;1.40;;;18.90;83.10;;;19.24;nan;100882.72;5013067;28;20657;-66
2023/07/07 01:41:36;;;;;;;1.53;1.20;;;18.90;83.10;;;19.17;nan;100879.06;5011309;28;20629;-66
2023/07/07 01:44:34;;;;;;;1.13;1.13;;;18.80;83.50;;;19.13;nan;100886.47;5021080;28;20632;-66
2023/07/07 01:47:14;;;;;;;1.73;1.47;;;18.80;84.20;;;19.15;nan;100881.03;5010613;28;20657;-65
2023/07/07 01:50:31;;;;;;;1.30;1.20;;;18.70;84.70;;;19.14;nan;100877.59;5008019;28;20640;-66
2023/07/07 01:53:07;;;;;;;1.10;1.10;;;18.80;84.50;;;19.11;nan;100879.69;5028436;28;20637;-66
2023/07/07 01:55:41;;;;;;;1.27;1.20;;;18.80;84.60;;;19.06;nan;100882.81;5028171;28;20656;-66
2023/07/07 01:58:10;;;;;;;1.60;1.50;;;18.70;84.80;;;19.01;nan;100879.00;5014723;28;21283;-67
2023/07/07 02:00:37;;;;;;;1.30;1.20;;;18.60;85.20;;;19.01;nan;100881.63;5008440;28;21015;-66
2023/07/07 02:03:10;;;;;;;1.80;1.40;;;18.70;85.50;;;19.01;nan;100886.94;5012441;28;20643;-66
2023/07/07 02:05:38;;;;;;;4.67;1.30;;;18.60;85.60;;;18.99;nan;100880.97;5030416;28;20597;-67
2023/07/07 02:08:05;;;;;;;1.13;1.00;;;18.60;85.00;;;19.00;nan;100888.75;5026574;28;20661;-65
2023/07/07 02:10:32;;;;;;;1.53;1.43;;;18.60;84.90;;;18.93;nan;100881.59;5026428;28;21010;-69
2023/07/07 02:12:59;;;;;;;1.30;1.30;;;18.50;85.00;;;18.89;nan;100885.56;5011742;28;20657;-66
2023/07/07 02:15:26;;;;;;;1.13;1.13;;;18.50;84.90;;;18.83;nan;100879.06;5012047;28;20752;-66
2023/07/07 02:17:53;;;;;;;1.30;1.30;;;18.50;85.10;;;18.84;nan;100877.25;5024856;28;20664;-67
2023/07/07 02:20:20;;;;;;;1.07;1.07;;;18.50;85.00;;;18.79;nan;100882.19;5027512;28;20616;-67
2023/07/07 02:22:47;;;;;;;1.10;1.10;;;18.50;85.20;;;18.76;nan;100887.78;5016823;28;20998;-65
2023/07/07 02:25:14;;;;;;;2.40;1.60;;;18.40;85.30;;;18.72;nan;100894.38;5018146;28;20625;-65
2023/07/07 02:27:41;;;;;;;1.27;1.20;;;18.40;85.70;;;18.72;nan;100889.91;5016875;28;20674;-67
2023/07/07 02:30:08;;;;;;;1.10;1.00;;;18.30;85.70;;;18.71;nan;100888.25;5027033;28;20640;-69
2023/07/07 02:32:35;;;;;;;1.97;1.40;;;18.40;85.80;;;18.71;nan;100887.41;5023807;28;20618;-66
2023/07/07 02:35:06;;;;;;;0.90;0.90;;;18.30;85.60;;;18.66;nan;100887.06;5019613;28;20645;-68
2023/07/07 02:37:33;;;;;;;1.67;1.40;;;18.30;85.80;;;18.60;nan;100888.50;5006278;28;20657;-67
2023/07/07 02:40:00;;;;;;;1.23;1.23;;;18.20;86.00;;;18.58;nan;100893.13;5021931;28;20617;-66
2023/07/07 02:42:27;;;;;;;1.23;1.13;;;18.20;86.10;;;18.56;nan;100893.28;5021577;28;21041;-65
2023/07/07 02:44:54;;;;;;;1.47;1.30;;;18.20;86.20;;;18.51;nan;100895.56;5022662;28;20636;-67
2023/07/07 02:47:21;;;;;;;1.00;1.00;;;18.20;86.30;;;18.44;nan;100899.78;5021717;28;20662;-68
2023/07/07 02:49:48;;;;;;;1.10;1.10;;;18.10;86.70;;;18.35;nan;100897.22;5020760;28;20624;-67
2023/07/07 02:52:15;;;;;;;1.70;1.60;;;18.00;86.70;;;18.32;nan;100898.34;5015773;28;21005;-66
2023/07/07 02:54:42;;;;;;;1.17;1.07;;;18.00;86.60;;;18.31;nan;100891.44;5009460;28;20649;-65
2023/07/07 02:57:09;;;;;;;1.47;1.37;;;17.90;86.80;;;18.27;nan;100892.69;5023321;28;20677;-66
2023/07/07 02:59:36;;;;;;;3.13;1.23;;;17.90;86.90;;;18.30;nan;100895.03;5020688;28;20659;-66
2023/07/07 03:02:03;;;;;;;0.90;0.90;;;17.90;87.30;;;18.31;nan;100896.72;5024917;28;20676;-67
2023/07/07 03:04:30;;;;;;;1.30;1.20;;;18.00;87.40;;;18.24;nan;100898.31;5015973;28;20636;-66
2023/07/07 03:06:58;;;;;;;1.43;1.40;;;17.90;87.70;;;18.21;nan;100906.50;5026630;28;21031;-65
2023/07/07 03:09:25;;;;;;;1.20;1.20;;;17.90;88.40;;;18.16;nan;100903.53;5029046;28;20631;-66
2023/07/07 03:11:52;;;;;;;1.03;1.03;;;17.80;88.10;;;18.17;nan;100905.16;5024302;28;21541;-67
2023/07/07 03:14:19;;;;;;;1.87;1.67;;;17.80;88.20;;;18.19;nan;100907.66;5023278;28;20639;-67
2023/07/07 03:16:51;;;;;;;0.97;0.97;;;17.80;88.60;;;18.21;nan;100903.88;5032510;28;20680;-65
2023/07/07 03:19:19;;;;;;;1.60;1.10;;;17.80;88.90;;;18.25;nan;100905.22;5017852;28;20617;-66
2023/07/07 03:21:46;;;;;;;1.23;1.13;;;17.90;89.00;;;18.29;nan;100903.94;5014033;28;20582;-66
2023/07/07 03:24:15;;;;;;;1.30;1.20;;;17.90;88.60;;;18.28;nan;100912.03;5019491;28;20639;-66
2023/07/07 03:26:43;;;;;;;2.80;1.30;;;17.90;88.60;;;18.25;nan;100912.34;5026218;28;21146;-67
2023/07/07 03:29:10;;;;;;;1.30;1.30;;;17.90;88.60;;;18.17;nan;100907.81;5031403;28;20618;-66
2023/07/07 03:31:37;;;;;;;1.37;1.27;;;17.80;88.70;;;18.12;nan;100914.53;5031299;28;20632;-65
2023/07/07 03:34:07;;;;;;;1.37;1.27;;;17.80;89.20;;;18.05;nan;100916.94;5031209;28;21012;-67
2023/07/07 03:36:35;;;;;;;1.17;1.07;;;17.70;89.60;;;18.00;nan;100910.44;5032959;28;20660;-66
2023/07/07 03:39:03;;;;;;;1.70;1.40;;;17.70;90.00;;;17.95;nan;100910.09;5019223;28;20637;-67
2023/07/07 03:41:30;;;;;;;1.27;1.00;;;17.70;90.20;;;17.92;nan;100902.47;5012133;28;20609;-67
2023/07/07 03:43:58;;;;;;;3.07;1.40;;;17.60;90.30;;;17.87;nan;100905.53;5027669;28;20620;-67
2023/07/07 03:46:28;;;;;;;1.20;1.00;;;17.60;90.50;;;17.84;nan;100914.59;5027370;28;21074;-67
2023/07/07 03:48:56;;;;;;;2.00;1.10;;;17.50;90.70;;;17.86;nan;100914.47;5010482;28;20645;-66
2023/07/07 03:51:26;;;;;;;0.97;0.97;;;17.50;90.60;;;17.82;nan;100913.91;5029989;28;20653;-65
2023/07/07 03:53:54;;;;;;;1.10;1.10;;;17.50;90.60;;;17.87;nan;100917.94;5025324;28;21238;-65
2023/07/07 03:56:20;;;;;;;1.20;1.20;;;17.60;90.70;;;17.93;nan;100918.13;5029872;28;21290;-66
2023/07/07 03:58:48;;;;;;;2.10;1.63;;;17.60;90.70;;;17.99;nan;100920.19;5012945;28;20636;-66
2023/07/07 04:01:15;;;;;;;1.90;1.37;;;17.60;90.60;;;18.08;nan;100918.47;5012448;28;20624;-67
2023/07/07 04:03:45;;;;;;;3.57;1.10;;;17.70;90.60;;;18.14;nan;100921.34;5011126;28;20645;-66
2023/07/07 04:06:15;;;;;;;2.20;1.50;;;17.80;90.50;;;18.25;nan;100925.56;5011577;28;21177;-68
2023/07/07 04:08:42;;;;;;;1.63;1.50;;;17.90;90.40;;;18.38;nan;100933.88;4997889;28;20641;-67
2023/07/07 04:11:15;;;;;;;2.03;1.33;;;18.00;90.40;;;18.59;nan;100935.25;5031341;28;20636;-66
2023/07/07 04:13:43;;;;;;;1.47;1.37;;;18.20;90.30;;;18.76;nan;100930.88;5028147;28;20651;-65
2023/07/07 04:16:22;;;;;;;1.57;1.40;;;18.40;90.00;;;18.99;nan;100934.69;5032339;28;20774;-65
2023/07/07 04:18:53;;;;;;;2.83;1.60;;;18.60;89.80;;;19.19;nan;100941.41;5025353;28;21182;-65
2023/07/07 04:21:26;;;;;;;1.70;1.60;;;18.80;89.10;;;19.46;nan;100932.47;5020393;28;21000;-66
2023/07/07 04:23:56;;;;;;;1.93;1.83;;;19.00;88.70;;;19.74;nan;100933.84;5026048;28;20619;-64
2023/07/07 04:26:25;;;;;;;1.87;1.50;;;19.30;88.20;;;20.00;nan;100937.22;5022606;28;20655;-67
2023/07/07 04:28:57;;;;;;;1.70;1.60;;;19.50;87.40;;;20.19;nan;100946.66;5023172;28;21075;-70
2023/07/07 04:31:27;;;;;;;1.37;1.27;;;19.80;87.00;;;20.22;nan;100942.91;5030744;28;20626;-67
2023/07/07 04:33:54;;;;;;;1.87;1.40;;;19.80;85.90;;;20.21;nan;100942.06;5025913;28;20644;-66
2023/07/07 04:36:22;;;;;;;1.00;1.00;;;19.90;85.80;;;20.26;nan;100942.41;5027118;28;20668;-66
2023/07/07 04:38:49;;;;;;;1.50;1.37;;;19.90;85.50;;;20.32;nan;100946.22;5028270;28;20733;-66
2023/07/07 04:41:20;;;;;;;1.57;1.33;;;20.00;85.20;;;20.50;nan;100941.59;5030196;28;20647;-65
2023/07/07 04:43:59;;;;;;;1.47;1.37;;;20.10;84.90;;;20.68;nan;100929.78;5024746;28;20637;-65
2023/07/07 04:46:33;;;;;;;1.70;1.60;;;20.30;84.40;;;20.89;nan;100945.19;5017364;28;20723;-65
2023/07/07 04:49:06;;;;;;;2.13;2.00;;;20.50;83.80;;;21.10;nan;100953.47;5018568;28;20686;-65
2023/07/07 04:51:41;;;;;;;2.23;2.03;;;20.70;83.60;;;21.31;nan;100947.56;5026999;28;20644;-65
2023/07/07 04:54:14;;;;;;;1.43;1.43;;;20.90;82.80;;;21.54;nan;100944.00;5025310;28;20659;-65
2023/07/07 04:56:41;;;;;;;1.67;1.57;;;21.20;82.30;;;21.83;nan;100939.88;5021592;28;20687;-68
2023/07/07 04:59:08;;;;;;;1.30;1.20;;;21.40;82.00;;;22.11;nan;100943.66;5024000;28;20999;-66
2023/07/07 05:01:37;;;;;;;2.90;1.53;;;21.60;81.00;;;22.34;nan;100936.50;5023223;28;20643;-65
2023/07/07 05:04:05;;;;;;;3.37;1.73;;;21.80;80.60;;;22.63;nan;100946.44;5018371;28;20636;-66
2023/07/07 05:06:36;;;;;;;2.47;2.20;;;22.10;79.80;;;22.90;nan;100946.66;5024311;28;20668;-65
2023/07/07 05:09:05;;;;;;;3.67;2.77;;;22.40;79.10;;;23.18;nan;100949.50;5023663;28;21030;-65
2023/07/07 05:11:34;;;;;;;2.07;1.93;;;22.70;78.40;;;23.42;nan;100937.78;5022250;28;20643;-66
2023/07/07 05:14:02;;;;;;;3.27;2.20;;;22.90;77.90;;;23.69;nan;100950.38;5024548;28;20652;-67
2023/07/07 05:16:37;;;;;;;2.10;1.90;;;23.20;77.30;;;23.96;nan;100956.84;5011726;28;20767;-66
2023/07/07 05:19:06;;;;;;;3.10;2.30;;;23.40;76.80;;;24.19;nan;100957.53;5014203;28;20640;-67
2023/07/07 05:21:33;;;;;;;3.33;1.93;;;23.70;76.40;;;24.42;nan;100966.97;5019828;28;21187;-66
2023/07/07 05:24:01;;;;;;;3.53;2.33;;;23.90;75.90;;;24.63;nan;100963.47;5024839;28;20629;-67
2023/07/07 05:26:28;;;;;;;3.30;2.33;;;24.10;75.40;;;24.85;nan;100962.44;5024120;28;21289;-69
2023/07/07 05:29:04;;;;;;;5.70;2.23;;;24.30;75.10;;;25.04;nan;100964.41;5022327;28;20644;-67
2023/07/07 05:31:31;;;;;;;3.80;2.43;;;24.50;74.40;;;25.11;nan;100956.41;5011984;28;20628;-67
2023/07/07 05:33:59;;;;;;;1.67;1.53;;;24.60;74.60;;;25.21;nan;100962.25;5016305;28;20641;-66
2023/07/07 05:36:26;;;;;;;2.00;1.90;;;24.70;74.50;;;25.26;nan;100968.63;5025389;28;21015;-65
2023/07/07 05:38:53;;;;;;;2.70;1.77;;;24.80;75.20;;;25.45;nan;100969.78;5028084;28;20640;-67
2023/07/07 05:41:20;;;;;;;3.10;1.90;;;25.00;73.90;;;25.62;nan;100965.72;5019691;28;21203;-69
2023/07/07 05:43:48;;;;;;;1.70;1.60;;;25.10;73.50;;;25.71;nan;100975.25;5019425;28;21197;-67
2023/07/07 05:46:18;;;;;;;2.50;2.00;;;25.30;72.90;;;25.65;nan;100965.34;5015619;28;20636;-67
2023/07/07 05:48:46;;;;;;;2.13;1.80;;;25.30;72.60;;;25.42;nan;100970.19;5008082;28;20637;-66
2023/07/07 05:51:18;;;;;;;1.53;1.50;;;25.20;72.80;;;25.45;nan;100971.66;5010953;28;20637;-67
2023/07/07 05:53:47;;;;;;;2.60;2.40;;;25.10;73.50;;;25.58;nan;100963.66;5020213;28;20648;-66
2023/07/07 05:56:22;;;;;;;2.23;2.00;;;25.20;73.60;;;26.00;nan;100971.44;5021095;28;20670;-66
2023/07/07 05:58:54;;;;;;;1.63;1.53;;;25.50;73.10;;;26.29;nan;100979.13;5026281;28;20622;-67
2023/07/07 06:01:23;;;;;;;4.27;2.63;;;25.80;72.60;;;26.48;nan;100972.97;5018264;28;20644;-66
2023/07/07 06:03:50;;;;;;;2.47;2.27;;;26.00;72.10;;;26.79;nan;100965.16;5024044;28;20641;-66
2023/07/07 06:06:17;;;;;;;1.70;1.60;;;26.30;71.80;;;27.12;nan;100969.63;5028392;28;20633;-68
2023/07/07 06:08:44;;;;;;;2.33;1.90;;;26.60;71.00;;;27.51;nan;100969.56;5025593;28;20642;-66
2023/07/07 06:11:11;;;;;;;2.10;2.00;;;26.90;70.10;;;27.84;nan;100969.38;5012430;28;20656;-68
2023/07/07 06:13:38;;;;;;;2.83;2.10;;;27.20;68.50;;;28.08;nan;100960.59;5022061;28;21576;-66
2023/07/07 06:16:06;;;;;;;2.80;2.60;;;27.50;68.10;;;28.52;nan;100965.84;5011017;28;21058;-67
2023/07/07 06:18:34;;;;;;;2.00;1.90;;;27.90;67.40;;;28.60;nan;100964.81;5029137;28;20644;-67
2023/07/07 06:21:01;;;;;;;2.10;2.00;;;28.10;66.80;;;28.83;nan;100971.19;5024154;28;20645;-67
2023/07/07 06:23:29;;;;;;;2.10;2.00;;;28.20;66.40;;;29.18;nan;100967.97;5015096;28;20614;-68
2023/07/07 06:25:57;;;;;;;2.20;2.00;;;28.50;66.00;;;29.45;nan;100970.16;5020850;28;20641;-67
2023/07/07 06:28:24;;;;;;;3.90;1.97;;;28.90;65.60;;;29.80;nan;100963.09;5019689;28;20666;-67
2023/07/07 06:30:52;;;;;;;2.37;2.17;;;29.20;64.70;;;30.06;nan;100969.97;5017360;28;20821;-66
2023/07/07 06:33:20;;;;;;;2.00;1.90;;;29.50;64.30;;;30.48;nan;100976.16;5028397;28;20991;-64
2023/07/07 06:35:48;;;;;;;2.03;1.93;;;29.90;63.50;;;30.95;nan;100971.66;5013902;28;20629;-68
2023/07/07 06:38:16;;;;;;;3.53;1.80;;;30.30;62.70;;;31.41;nan;100971.63;5009714;28;20681;-68
2023/07/07 06:40:45;;;;;;;2.60;2.20;;;30.80;61.80;;;31.86;nan;100969.81;5017743;28;21008;-68
2023/07/07 06:43:17;;;;;;;2.30;2.13;;;31.30;61.70;;;31.97;nan;100968.97;5021444;28;20636;-67
2023/07/07 06:45:56;;;;;;;2.93;2.10;;;31.60;59.60;;;32.14;nan;100977.91;5025625;28;21179;-67
2023/07/07 06:48:23;;;;;;;1.63;1.53;;;31.80;59.00;;;32.19;nan;100976.38;4995732;28;20654;-67
2023/07/07 06:50:50;;;;;;;2.67;2.00;;;31.90;58.60;;;32.54;nan;100977.78;5024439;28;20647;-67
2023/07/07 06:53:17;;;;;;;2.30;2.10;;;32.20;58.50;;;32.92;nan;100987.84;5024703;28;20632;-65
2023/07/07 06:55:44;;;;;;;4.43;2.00;;;32.60;57.90;;;33.36;nan;100994.97;5022130;28;20620;-68
2023/07/07 06:58:13;;;;;;;2.43;2.30;;;33.00;56.90;;;34.18;nan;100984.84;5024975;28;20732;-67
2023/07/07 07:00:42;;;;;;;2.33;2.13;;;33.70;56.40;;;35.16;nan;100993.47;5060359;28;21066;-67
2023/07/07 07:03:09;;;;;;;2.10;2.00;;;34.60;55.10;;;35.94;nan;100989.72;5043802;28;20622;-68
2023/07/07 07:05:40;;;;;;;3.00;2.40;;;35.40;53.60;;;36.56;nan;100996.63;5027345;28;20621;-67
2023/07/07 07:08:07;;;;;;;2.10;1.90;;;36.00;52.20;;;37.20;nan;100985.09;5027980;28;20657;-68
2023/07/07 07:10:34;;;;;;;2.50;1.90;;;36.60;50.90;;;37.84;nan;100996.81;5008286;28;20636;-67
2023/07/07 07:13:01;;;;;;;2.20;2.10;;;37.20;50.20;;;38.13;nan;100996.88;5027676;28;20604;-67
2023/07/07 07:15:28;;;;;;;1.90;1.80;;;37.70;49.30;;;38.41;nan;100995.34;5027753;28;20682;-68
2023/07/07 07:17:59;;;;;;;1.80;1.80;;;38.00;48.60;;;38.97;nan;100999.19;5026161;28;20747;-66
2023/07/07 07:20:27;;;;;;;1.70;1.70;;;38.40;48.20;;;39.49;nan;100996.38;5032493;28;21003;-69
2023/07/07 07:22:54;;;;;;;2.40;2.20;;;38.90;47.60;;;39.77;nan;101002.88;5020575;28;20614;-67
2023/07/07 07:25:21;;;;;;;2.00;1.93;;;39.30;46.90;;;39.88;nan;101001.63;5019135;28;20645;-67
2023/07/07 07:27:48;;;;;;;5.00;1.80;;;39.50;46.90;;;39.93;nan;101008.94;5013934;28;20665;-67
2023/07/07 07:30:15;;;;;;;1.80;1.70;;;39.60;47.00;;;40.11;nan;100998.00;5007307;28;20628;-68
2023/07/07 07:32:42;;;;;;;2.40;2.30;;;39.80;46.00;;;40.29;nan;100990.91;5007727;28;20637;-68
2023/07/07 07:35:11;;;;;;;2.47;2.33;;;40.00;45.50;;;40.58;nan;100986.03;5022844;28;20644;-67
2023/07/07 07:37:38;;;;;;;1.97;1.90;;;40.20;45.30;;;40.58;nan;100985.22;5021309;28;20747;-68
2023/07/07 07:40:06;;;;;;;1.90;1.80;;;40.40;44.80;;;40.89;nan;100987.09;5017493;28;20691;-68
2023/07/07 07:42:33;;;;;;;2.13;2.03;;;40.50;44.70;;;41.35;nan;100988.97;5008674;28;20633;-67
2023/07/07 07:45:00;;;;;;;3.90;2.13;;;41.00;44.50;;;41.52;nan;100989.97;5019030;28;21430;-67
2023/07/07 07:47:27;;;;;;;2.00;1.90;;;41.20;43.90;;;41.45;nan;100991.47;5020275;28;21006;-68
2023/07/07 07:49:54;;;;;;;2.40;2.30;;;41.30;42.60;;;41.10;nan;100981.25;5021833;28;21365;-69
2023/07/07 07:52:22;;;;;;;1.83;1.60;;;41.10;42.70;;;41.08;nan;100984.31;5015998;28;21204;-68
2023/07/07 07:54:50;;;;;;;3.60;2.27;;;41.10;42.40;;;41.72;nan;100984.03;5028407;28;21258;-69
2023/07/07 07:57:17;;;;;;;1.87;1.77;;;41.30;42.20;;;42.17;nan;100979.44;5025254;28;20758;-67
2023/07/07 07:59:44;;;;;;;1.83;1.77;;;41.80;41.80;;;42.74;nan;100987.88;5022603;28;20637;-67
2023/07/07 08:02:12;;;;;;;2.10;2.00;;;42.30;41.40;;;42.77;nan;100978.97;5016880;28;20613;-67
2023/07/07 08:04:39;;;;;;;2.03;1.83;;;42.50;41.20;;;42.92;nan;100978.59;5023241;28;20644;-67
2023/07/07 08:07:06;;;;;;;1.80;1.80;;;42.70;40.90;;;42.89;nan;100980.06;5020081;28;21263;-67
2023/07/07 08:09:33;;;;;;;1.50;1.50;;;42.70;40.20;;;42.77;nan;100976.25;5026315;28;20636;-67
2023/07/07 08:12:03;;;;;;;2.10;2.00;;;42.70;40.20;;;43.23;nan;100985.63;5026960;28;20616;-67
2023/07/07 08:14:32;;;;;;;1.60;1.60;;;43.00;40.30;;;43.53;nan;100983.94;5011550;28;20617;-67
2023/07/07 08:17:07;;;;;;;1.83;1.80;;;43.20;40.10;;;43.71;nan;100985.63;5013613;28;20676;-67
2023/07/07 08:19:37;;;;;;;1.63;1.63;;;43.50;40.00;;;43.92;nan;100988.50;5016416;28;21253;-66
2023/07/07 08:22:18;;;;;;;2.10;2.00;;;43.70;39.50;;;44.28;nan;100982.69;5013944;28;20632;-67
2023/07/07 08:24:52;;;;;;;2.20;2.10;;;44.10;39.40;;;44.40;nan;100983.66;5015595;28;20633;-67
2023/07/07 08:27:22;;;;;;;1.60;1.60;;;44.20;39.10;;;44.51;nan;100984.13;5011388;28;20663;-68
2023/07/07 08:29:53;;;;;;;1.77;1.67;;;44.40;38.70;;;44.60;nan;100990.38;5009862;28;20676;-67
2023/07/07 08:32:23;;;;;;;1.50;1.50;;;44.40;38.60;;;45.15;nan;100993.91;5015920;28;20613;-67
2023/07/07 08:34:54;;;;;;;1.90;1.80;;;44.60;38.20;;;45.05;nan;100988.78;5018172;28;20640;-67
2023/07/07 08:37:26;;;;;;;1.87;1.70;;;44.70;38.10;;;44.78;nan;100993.91;5027568;28;21236;-68
2023/07/07 08:39:54;;;;;;;1.70;1.70;;;44.70;37.50;;;44.50;nan;100996.25;5025312;28;20644;-68
2023/07/07 08:42:21;;;;;;;2.20;2.00;;;44.40;37.90;;;44.54;nan;100997.22;5011596;28;20608;-68
2023/07/07 08:44:48;;;;;;;4.90;1.87;;;44.30;38.00;;;44.05;nan;100990.31;5023059;28;20647;-69
2023/07/07 08:47:49;;;;;;;1.60;1.50;;;43.80;38.30;;;43.24;nan;100983.69;5013668;28;20669;-66
2023/07/07 08:50:33;;;;;;;1.97;1.87;;;43.00;38.40;;;42.17;nan;100984.91;5019109;28;21191;-68
2023/07/07 08:53:32;;;;;;;2.00;1.90;;;41.70;39.40;;;41.41;nan;100983.06;5014231;28;20644;-67
2023/07/07 08:56:28;;;;;;;2.30;2.20;;;40.80;40.10;;;40.12;nan;100969.56;5011432;28;20636;-66
2023/07/07 08:59:23;;;;;;;2.30;2.10;;;39.70;40.60;;;39.03;nan;100968.00;5031347;28;20655;-67
2023/07/07 09:02:29;;;;;;;1.90;1.80;;;38.60;41.30;;;37.97;nan;100962.69;5010993;28;21254;-68
2023/07/07 09:05:11;;;;;;;2.27;2.17;;;37.50;42.10;;;36.80;nan;100953.31;5008926;28;20641;-67
2023/07/07 09:07:53;;;;;;;2.10;2.00;;;36.40;43.20;;;35.80;nan;100956.81;5015871;28;20672;-67
2023/07/07 09:10:35;;;;;;;1.43;1.40;;;35.40;43.80;;;34.96;nan;100946.16;5030854;28;20643;-67
2023/07/07 09:13:29;;;;;;;2.57;2.17;;;34.50;44.80;;;34.38;nan;100941.69;5022980;28;20633;-67
2023/07/07 09:16:18;;;;;;;2.10;2.00;;;33.90;45.50;;;33.98;nan;100935.91;5010655;28;20633;-68
2023/07/07 09:19:09;;;;;;;2.40;2.00;;;33.50;46.10;;;33.70;nan;100944.28;5014678;28;21038;-67
2023/07/07 09:21:46;;;;;;;2.27;2.07;;;33.10;46.50;;;33.39;nan;100936.88;5009545;28;20650;-67
2023/07/07 09:24:47;;;;;;;2.17;1.93;;;32.80;46.60;;;33.03;nan;100949.09;5006949;28;20616;-67
2023/07/07 09:27:23;;;;;;;3.23;2.50;;;32.50;46.80;;;32.85;nan;100942.09;5019857;28;20664;-67
2023/07/07 09:30:11;;;;;;;6.80;2.40;;;32.30;47.40;;;32.58;nan;100943.03;5024173;28;20716;-67
2023/07/07 09:32:38;;;;;;;3.10;2.23;;;32.10;47.10;;;32.19;nan;100935.88;5017696;28;20621;-66
2023/07/07 09:35:14;;;;;;;2.37;2.17;;;31.60;47.60;;;31.87;nan;100936.38;5019121;28;20605;-69
2023/07/07 09:37:59;;;;;;;2.50;2.30;;;31.30;48.00;;;31.61;nan;100933.44;5024076;28;20681;-67
2023/07/07 09:40:54;;;;;;;2.27;2.03;;;31.10;48.50;;;31.33;nan;100935.03;5018116;28;20624;-67
2023/07/07 09:43:48;;;;;;;4.70;2.53;;;30.80;48.60;;;31.09;nan;100924.53;5011245;28;21336;-66
2023/07/07 09:46:46;;;;;;;3.03;2.27;;;30.50;49.00;;;30.89;nan;100930.31;5012338;28;21182;-67
2023/07/07 09:49:54;;;;;;;8.70;2.30;;;30.30;49.60;;;30.74;nan;100923.72;5014607;28;20652;-66
2023/07/07 09:52:45;;;;;;;2.60;2.40;;;30.10;49.50;;;30.80;nan;100918.22;5010299;28;20649;-67
2023/07/07 09:55:28;;;;;;;1.77;1.63;;;30.10;49.60;;;30.95;nan;100923.97;5017306;28;20625;-69
2023/07/07 09:58:21;;;;;;;2.23;2.13;;;30.30;49.70;;;31.12;nan;100924.88;5010602;28;20665;-67
2023/07/07 10:00:56;;;;;;;4.50;2.50;;;30.60;49.20;;;31.36;nan;100922.94;5013917;28;21538;-66
2023/07/07 10:03:37;;;;;;;5.60;2.67;;;30.90;48.60;;;32.08;nan;100921.38;5004027;28;20993;-68
2023/07/07 10:06:11;;;;;;;2.73;2.10;;;31.70;48.20;;;32.83;nan;100925.31;5008493;28;21216;-67
2023/07/07 10:08:38;;;;;;;2.83;2.57;;;32.40;47.50;;;33.31;nan;100911.06;5029343;28;21250;-66
2023/07/07 10:11:26;;;;;;;1.87;1.67;;;32.80;46.60;;;33.49;nan;100913.44;5028049;28;20652;-67
2023/07/07 10:13:57;;;;;;;3.83;3.10;;;32.90;46.40;;;33.81;nan;100910.81;5009098;28;20634;-67
2023/07/07 10:16:36;;;;;;;1.90;1.80;;;33.00;46.40;;;33.70;nan;100903.69;5014646;28;20621;-69
2023/07/07 10:19:12;;;;;;;2.50;2.10;;;33.00;46.50;;;33.11;nan;100912.72;5018691;28;20673;-65
2023/07/07 10:21:39;;;;;;;2.23;2.00;;;32.50;46.80;;;32.42;nan;100903.28;5011093;28;20637;-66
2023/07/07 10:24:11;;;;;;;2.40;1.63;;;31.80;47.40;;;31.88;nan;100902.91;5017464;28;20644;-66
2023/07/07 10:26:41;;;;;;;3.90;3.20;;;31.30;47.90;;;31.52;nan;100897.13;5022553;28;20661;-68
2023/07/07 10:29:15;;;;;;;7.40;2.93;;;30.90;48.40;;;31.13;nan;100891.50;5017651;28;20653;-66
2023/07/07 10:31:46;;;;;;;2.30;2.10;;;30.60;48.80;;;31.05;nan;100893.75;5024658;28;20620;-68
2023/07/07 10:34:36;;;;;;;2.23;2.03;;;30.40;49.40;;;31.00;nan;100886.38;5011027;28;21488;-66
2023/07/07 10:37:20;;;;;;;4.67;3.20;;;30.30;49.60;;;31.01;nan;100879.06;4992430;28;20664;-66
2023/07/07 10:40:12;;;;;;;4.27;3.40;;;30.30;50.00;;;31.14;nan;100889.59;5021289;28;21182;-66
2023/07/07 10:42:39;;;;;;;2.23;1.90;;;30.40;50.20;;;31.14;nan;100882.34;5012670;28;20636;-67
2023/07/07 10:45:07;;;;;;;1.80;1.70;;;30.40;49.20;;;31.18;nan;100879.97;5013057;28;20634;-67
2023/07/07 10:47:36;;;;;;;2.07;1.97;;;30.50;49.00;;;31.13;nan;100882.56;5026906;28;21032;-67